sensor_id;sensor_type;location;lat;lon;timestamp;temperature;humidity
2300;DHT22;1158;48.750;9.078;2023-11-25T00:00:17;1.00;99.90
2300;DHT22;1158;48.750;9.078;2023-11-25T00:02:48;1.00;99.90
2300;DHT22;1158;48.750;9.078;2023-11-25T00:05:15;1.00;99.90
2300;DHT22;1158;48.750;9.078;2023-11-25T00:07:42;1.00;99.90
2300;DHT22;1158;48.750;9.078;2023-11-25T00:10:09;1.00;99.90
2300;DHT22;1158;48.750;9.078;2023-11-25T00:12:36;1.00;99.90
2300;DHT22;1158;48.750;9.078;2023-11-25T00:15:03;1.00;99.90
2300;DHT22;1158;48.750;9.078;2023-11-25T00:17:30;1.00;99.90
2300;DHT22;1158;48.750;9.078;2023-11-25T00:20:00;1.00;99.90
2300;DHT22;1158;48.750;9.078;2023-11-25T00:22:26;1.10;99.90
2300;DHT22;1158;48.750;9.078;2023-11-25T00:24:53;1.00;99.90
2300;DHT22;1158;48.750;9.078;2023-11-25T00:27:20;1.10;99.90
2300;DHT22;1158;48.750;9.078;2023-11-25T00:29:46;1.10;99.90
2300;DHT22;1158;48.750;9.078;2023-11-25T00:32:14;1.20;99.90
2300;DHT22;1158;48.750;9.078;2023-11-25T00:34:41;1.10;99.90
2300;DHT22;1158;48.750;9.078;2023-11-25T00:37:10;1.20;99.90
2300;DHT22;1158;48.750;9.078;2023-11-25T00:39:37;1.20;99.90
2300;DHT22;1158;48.750;9.078;2023-11-25T00:42:04;1.20;99.90
2300;DHT22;1158;48.750;9.078;2023-11-25T00:44:31;1.20;99.90
2300;DHT22;1158;48.750;9.078;2023-11-25T00:46:58;1.20;99.90
2300;DHT22;1158;48.750;9.078;2023-11-25T00:49:26;1.20;99.90
2300;DHT22;1158;48.750;9.078;2023-11-25T00:51:52;1.20;99.90
2300;DHT22;1158;48.750;9.078;2023-11-25T00:54:20;1.20;99.90
2300;DHT22;1158;48.750;9.078;2023-11-25T00:56:48;1.20;99.90
2300;DHT22;1158;48.750;9.078;2023-11-25T00:59:15;1.10;99.90
2300;DHT22;1158;48.750;9.078;2023-11-25T01:01:42;1.20;99.90
2300;DHT22;1158;48.750;9.078;2023-11-25T01:04:08;1.20;99.90
2300;DHT22;1158;48.750;9.078;2023-11-25T01:06:35;1.20;99.90
2300;DHT22;1158;48.750;9.078;2023-11-25T01:09:02;1.20;99.90
2300;DHT22;1158;48.750;9.078;2023-11-25T01:11:30;1.30;99.90
2300;DHT22;1158;48.750;9.078;2023-11-25T01:13:56;1.20;99.90
2300;DHT22;1158;48.750;9.078;2023-11-25T01:16:23;1.20;99.90
2300;DHT22;1158;48.750;9.078;2023-11-25T01:18:50;1.20;99.90
2300;DHT22;1158;48.750;9.078;2023-11-25T01:21:17;1.10;99.90
2300;DHT22;1158;48.750;9.078;2023-11-25T01:23:44;1.00;99.90
2300;DHT22;1158;48.750;9.078;2023-11-25T01:26:10;1.00;99.90
2300;DHT22;1158;48.750;9.078;2023-11-25T01:28:38;1.00;99.90
2300;DHT22;1158;48.750;9.078;2023-11-25T01:31:07;0.90;99.90
2300;DHT22;1158;48.750;9.078;2023-11-25T01:33:35;0.90;99.90
2300;DHT22;1158;48.750;9.078;2023-11-25T01:36:02;0.90;99.90
2300;DHT22;1158;48.750;9.078;2023-11-25T01:38:29;0.90;99.90
2300;DHT22;1158;48.750;9.078;2023-11-25T01:40:55;0.90;99.90
2300;DHT22;1158;48.750;9.078;2023-11-25T01:43:22;0.90;99.90
2300;DHT22;1158;48.750;9.078;2023-11-25T01:45:55;0.90;99.90
2300;DHT22;1158;48.750;9.078;2023-11-25T01:48:22;0.90;99.90
2300;DHT22;1158;48.750;9.078;2023-11-25T01:50:49;0.90;99.90
2300;DHT22;1158;48.750;9.078;2023-11-25T01:53:17;0.90;99.90
2300;DHT22;1158;48.750;9.078;2023-11-25T01:55:46;0.80;99.90
2300;DHT22;1158;48.750;9.078;2023-11-25T01:58:13;0.90;99.90
2300;DHT22;1158;48.750;9.078;2023-11-25T02:00:42;0.90;99.90
2300;DHT22;1158;48.750;9.078;2023-11-25T02:03:10;0.90;99.90
2300;DHT22;1158;48.750;9.078;2023-11-25T02:05:37;0.90;99.90
2300;DHT22;1158;48.750;9.078;2023-11-25T02:08:04;0.90;99.90
2300;DHT22;1158;48.750;9.078;2023-11-25T02:10:32;0.90;99.90
2300;DHT22;1158;48.750;9.078;2023-11-25T02:12:59;0.90;99.90
2300;DHT22;1158;48.750;9.078;2023-11-25T02:15:28;0.80;99.90
2300;DHT22;1158;48.750;9.078;2023-11-25T02:17:56;0.80;99.90
2300;DHT22;1158;48.750;9.078;2023-11-25T02:20:34;0.80;99.90
2300;DHT22;1158;48.750;9.078;2023-11-25T02:23:03;0.80;99.90
2300;DHT22;1158;48.750;9.078;2023-11-25T02:25:31;0.80;99.90
2300;DHT22;1158;48.750;9.078;2023-11-25T02:27:58;0.80;99.90
2300;DHT22;1158;48.750;9.078;2023-11-25T02:30:24;0.90;99.90
2300;DHT22;1158;48.750;9.078;2023-11-25T02:32:52;0.90;99.90
2300;DHT22;1158;48.750;9.078;2023-11-25T02:35:19;0.80;99.90
2300;DHT22;1158;48.750;9.078;2023-11-25T02:37:46;0.80;99.90
2300;DHT22;1158;48.750;9.078;2023-11-25T02:40:15;0.70;99.90
2300;DHT22;1158;48.750;9.078;2023-11-25T02:42:43;0.70;99.90
2300;DHT22;1158;48.750;9.078;2023-11-25T02:45:18;0.70;99.90
2300;DHT22;1158;48.750;9.078;2023-11-25T02:47:45;0.60;99.90
2300;DHT22;1158;48.750;9.078;2023-11-25T02:50:12;0.60;99.90
2300;DHT22;1158;48.750;9.078;2023-11-25T02:52:39;0.60;99.90
2300;DHT22;1158;48.750;9.078;2023-11-25T02:55:07;0.60;99.90
2300;DHT22;1158;48.750;9.078;2023-11-25T02:57:37;0.60;99.90
2300;DHT22;1158;48.750;9.078;2023-11-25T03:00:05;0.70;99.90
2300;DHT22;1158;48.750;9.078;2023-11-25T03:02:41;0.70;99.90
2300;DHT22;1158;48.750;9.078;2023-11-25T03:05:08;0.70;99.90
2300;DHT22;1158;48.750;9.078;2023-11-25T03:07:35;0.60;99.90
2300;DHT22;1158;48.750;9.078;2023-11-25T03:10:02;0.60;99.90
2300;DHT22;1158;48.750;9.078;2023-11-25T03:12:30;0.70;99.90
2300;DHT22;1158;48.750;9.078;2023-11-25T03:14:58;0.80;99.90
2300;DHT22;1158;48.750;9.078;2023-11-25T03:17:24;0.80;99.90
2300;DHT22;1158;48.750;9.078;2023-11-25T03:19:51;0.80;99.90
2300;DHT22;1158;48.750;9.078;2023-11-25T03:22:18;0.80;99.90
2300;DHT22;1158;48.750;9.078;2023-11-25T03:24:44;0.80;99.90
2300;DHT22;1158;48.750;9.078;2023-11-25T03:27:11;0.80;99.90
2300;DHT22;1158;48.750;9.078;2023-11-25T03:29:38;0.90;99.90
2300;DHT22;1158;48.750;9.078;2023-11-25T03:32:07;0.80;99.90
2300;DHT22;1158;48.750;9.078;2023-11-25T03:34:34;0.90;99.90
2300;DHT22;1158;48.750;9.078;2023-11-25T03:37:01;0.80;99.90
2300;DHT22;1158;48.750;9.078;2023-11-25T03:39:28;0.80;99.90
2300;DHT22;1158;48.750;9.078;2023-11-25T03:41:56;0.80;99.90
2300;DHT22;1158;48.750;9.078;2023-11-25T03:44:23;0.80;99.90
2300;DHT22;1158;48.750;9.078;2023-11-25T03:46:49;0.80;99.90
2300;DHT22;1158;48.750;9.078;2023-11-25T03:49:17;0.80;99.90
2300;DHT22;1158;48.750;9.078;2023-11-25T03:51:46;0.80;99.90
2300;DHT22;1158;48.750;9.078;2023-11-25T03:54:12;0.80;99.90
2300;DHT22;1158;48.750;9.078;2023-11-25T03:56:39;0.70;99.90
2300;DHT22;1158;48.750;9.078;2023-11-25T03:59:06;0.60;99.90
2300;DHT22;1158;48.750;9.078;2023-11-25T04:01:33;0.60;99.90
2300;DHT22;1158;48.750;9.078;2023-11-25T04:04:01;0.60;99.90
2300;DHT22;1158;48.750;9.078;2023-11-25T04:06:30;0.40;99.90
2300;DHT22;1158;48.750;9.078;2023-11-25T04:08:57;0.40;99.90
2300;DHT22;1158;48.750;9.078;2023-11-25T04:11:23;0.40;99.90
2300;DHT22;1158;48.750;9.078;2023-11-25T04:13:50;0.30;99.90
2300;DHT22;1158;48.750;9.078;2023-11-25T04:16:22;0.30;99.90
2300;DHT22;1158;48.750;9.078;2023-11-25T04:18:49;0.30;99.90
2300;DHT22;1158;48.750;9.078;2023-11-25T04:21:16;0.20;99.90
2300;DHT22;1158;48.750;9.078;2023-11-25T04:23:47;0.20;99.90
2300;DHT22;1158;48.750;9.078;2023-11-25T04:26:14;0.30;99.90
2300;DHT22;1158;48.750;9.078;2023-11-25T04:28:41;0.30;99.90
2300;DHT22;1158;48.750;9.078;2023-11-25T04:31:08;0.30;99.90
2300;DHT22;1158;48.750;9.078;2023-11-25T04:33:35;0.20;99.90
2300;DHT22;1158;48.750;9.078;2023-11-25T04:36:02;0.20;99.90
2300;DHT22;1158;48.750;9.078;2023-11-25T04:38:29;0.10;99.90
2300;DHT22;1158;48.750;9.078;2023-11-25T04:40:57;0.00;99.90
2300;DHT22;1158;48.750;9.078;2023-11-25T04:43:23;-0.10;99.90
2300;DHT22;1158;48.750;9.078;2023-11-25T04:45:50;0.00;99.90
2300;DHT22;1158;48.750;9.078;2023-11-25T04:48:18;0.00;99.90
2300;DHT22;1158;48.750;9.078;2023-11-25T04:50:45;0.00;99.90
2300;DHT22;1158;48.750;9.078;2023-11-25T04:53:12;0.00;99.90
2300;DHT22;1158;48.750;9.078;2023-11-25T04:55:39;-0.20;99.90
2300;DHT22;1158;48.750;9.078;2023-11-25T04:58:07;-0.30;99.90
2300;DHT22;1158;48.750;9.078;2023-11-25T05:00:34;-0.30;99.90
2300;DHT22;1158;48.750;9.078;2023-11-25T05:03:01;-0.30;99.90
2300;DHT22;1158;48.750;9.078;2023-11-25T05:05:30;-0.40;99.90
2300;DHT22;1158;48.750;9.078;2023-11-25T05:07:57;-0.30;99.90
2300;DHT22;1158;48.750;9.078;2023-11-25T05:10:24;-0.40;99.90
2300;DHT22;1158;48.750;9.078;2023-11-25T05:12:53;-0.30;99.90
2300;DHT22;1158;48.750;9.078;2023-11-25T05:15:22;-0.30;99.90
2300;DHT22;1158;48.750;9.078;2023-11-25T05:17:50;-0.30;99.90
2300;DHT22;1158;48.750;9.078;2023-11-25T05:20:17;-0.20;99.90
2300;DHT22;1158;48.750;9.078;2023-11-25T05:22:44;-0.20;99.90
2300;DHT22;1158;48.750;9.078;2023-11-25T05:25:11;-0.10;99.90
2300;DHT22;1158;48.750;9.078;2023-11-25T05:27:38;0.00;99.90
2300;DHT22;1158;48.750;9.078;2023-11-25T05:30:06;-0.10;99.90
2300;DHT22;1158;48.750;9.078;2023-11-25T05:32:34;-0.20;99.90
2300;DHT22;1158;48.750;9.078;2023-11-25T05:35:01;-0.30;99.90
2300;DHT22;1158;48.750;9.078;2023-11-25T05:37:28;-0.30;99.90
2300;DHT22;1158;48.750;9.078;2023-11-25T05:39:54;-0.40;99.90
2300;DHT22;1158;48.750;9.078;2023-11-25T05:42:21;-0.40;99.90
2300;DHT22;1158;48.750;9.078;2023-11-25T05:44:52;-0.40;99.90
2300;DHT22;1158;48.750;9.078;2023-11-25T05:47:19;-0.40;99.90
2300;DHT22;1158;48.750;9.078;2023-11-25T05:49:48;-0.40;99.90
2300;DHT22;1158;48.750;9.078;2023-11-25T05:52:15;-0.40;99.90
2300;DHT22;1158;48.750;9.078;2023-11-25T05:54:41;-0.60;99.90
2300;DHT22;1158;48.750;9.078;2023-11-25T05:57:08;-0.70;99.90
2300;DHT22;1158;48.750;9.078;2023-11-25T05:59:36;-0.70;99.90
2300;DHT22;1158;48.750;9.078;2023-11-25T06:02:03;-0.80;99.90
2300;DHT22;1158;48.750;9.078;2023-11-25T06:04:30;-0.90;99.90
2300;DHT22;1158;48.750;9.078;2023-11-25T06:06:58;-0.90;99.90
2300;DHT22;1158;48.750;9.078;2023-11-25T06:09:25;-0.80;99.90
2300;DHT22;1158;48.750;9.078;2023-11-25T06:11:52;-0.80;99.90
2300;DHT22;1158;48.750;9.078;2023-11-25T06:14:18;-0.80;99.90
2300;DHT22;1158;48.750;9.078;2023-11-25T06:16:45;-0.60;99.90
2300;DHT22;1158;48.750;9.078;2023-11-25T06:19:14;-0.60;99.90
2300;DHT22;1158;48.750;9.078;2023-11-25T06:21:43;-0.50;99.90
2300;DHT22;1158;48.750;9.078;2023-11-25T06:24:13;-0.40;99.90
2300;DHT22;1158;48.750;9.078;2023-11-25T06:26:40;-0.40;99.90
2300;DHT22;1158;48.750;9.078;2023-11-25T06:29:07;-0.20;99.90
2300;DHT22;1158;48.750;9.078;2023-11-25T06:31:33;-0.20;99.90
2300;DHT22;1158;48.750;9.078;2023-11-25T06:34:01;-0.10;99.90
2300;DHT22;1158;48.750;9.078;2023-11-25T06:36:29;-0.10;99.90
2300;DHT22;1158;48.750;9.078;2023-11-25T06:38:56;0.00;99.90
2300;DHT22;1158;48.750;9.078;2023-11-25T06:41:24;0.00;99.90
2300;DHT22;1158;48.750;9.078;2023-11-25T06:43:52;0.00;99.90
2300;DHT22;1158;48.750;9.078;2023-11-25T06:46:19;0.00;99.90
2300;DHT22;1158;48.750;9.078;2023-11-25T06:48:47;0.00;99.90
2300;DHT22;1158;48.750;9.078;2023-11-25T06:51:14;0.00;99.90
2300;DHT22;1158;48.750;9.078;2023-11-25T06:53:42;0.00;99.90
2300;DHT22;1158;48.750;9.078;2023-11-25T06:56:09;0.00;99.90
2300;DHT22;1158;48.750;9.078;2023-11-25T06:58:41;0.10;99.90
2300;DHT22;1158;48.750;9.078;2023-11-25T07:01:08;0.10;99.90
2300;DHT22;1158;48.750;9.078;2023-11-25T07:03:35;0.20;99.90
2300;DHT22;1158;48.750;9.078;2023-11-25T07:06:02;0.10;99.90
2300;DHT22;1158;48.750;9.078;2023-11-25T07:08:30;0.20;99.90
2300;DHT22;1158;48.750;9.078;2023-11-25T07:10:57;0.20;99.90
2300;DHT22;1158;48.750;9.078;2023-11-25T07:13:27;0.20;99.90
2300;DHT22;1158;48.750;9.078;2023-11-25T07:15:55;0.20;99.90
2300;DHT22;1158;48.750;9.078;2023-11-25T07:18:22;0.30;99.90
2300;DHT22;1158;48.750;9.078;2023-11-25T07:20:49;0.30;99.90
2300;DHT22;1158;48.750;9.078;2023-11-25T07:23:16;0.40;99.90
2300;DHT22;1158;48.750;9.078;2023-11-25T07:25:44;0.30;99.90
2300;DHT22;1158;48.750;9.078;2023-11-25T07:28:11;0.30;99.90
2300;DHT22;1158;48.750;9.078;2023-11-25T07:30:38;0.30;99.90
2300;DHT22;1158;48.750;9.078;2023-11-25T07:33:09;0.30;99.90
2300;DHT22;1158;48.750;9.078;2023-11-25T07:35:36;0.40;99.90
2300;DHT22;1158;48.750;9.078;2023-11-25T07:38:02;0.40;99.90
2300;DHT22;1158;48.750;9.078;2023-11-25T07:40:29;0.40;99.90
2300;DHT22;1158;48.750;9.078;2023-11-25T07:42:56;0.40;99.90
2300;DHT22;1158;48.750;9.078;2023-11-25T07:45:24;0.40;99.90
2300;DHT22;1158;48.750;9.078;2023-11-25T07:47:51;0.50;99.90
2300;DHT22;1158;48.750;9.078;2023-11-25T07:50:19;0.50;99.90
2300;DHT22;1158;48.750;9.078;2023-11-25T07:52:47;0.60;99.90
2300;DHT22;1158;48.750;9.078;2023-11-25T07:55:14;0.70;99.90
2300;DHT22;1158;48.750;9.078;2023-11-25T07:57:42;0.70;99.90
2300;DHT22;1158;48.750;9.078;2023-11-25T08:00:09;0.70;99.90
2300;DHT22;1158;48.750;9.078;2023-11-25T08:02:41;0.70;99.90
2300;DHT22;1158;48.750;9.078;2023-11-25T08:05:08;0.70;99.90
2300;DHT22;1158;48.750;9.078;2023-11-25T08:07:37;0.80;99.90
2300;DHT22;1158;48.750;9.078;2023-11-25T08:10:04;0.90;99.90
2300;DHT22;1158;48.750;9.078;2023-11-25T08:12:33;1.00;99.90
2300;DHT22;1158;48.750;9.078;2023-11-25T08:15:00;1.00;99.90
2300;DHT22;1158;48.750;9.078;2023-11-25T08:17:26;1.10;99.90
2300;DHT22;1158;48.750;9.078;2023-11-25T08:19:55;1.10;99.90
2300;DHT22;1158;48.750;9.078;2023-11-25T08:22:22;1.20;99.90
2300;DHT22;1158;48.750;9.078;2023-11-25T08:24:51;1.30;99.90
2300;DHT22;1158;48.750;9.078;2023-11-25T08:27:21;1.40;99.90
2300;DHT22;1158;48.750;9.078;2023-11-25T08:29:48;1.50;99.90
2300;DHT22;1158;48.750;9.078;2023-11-25T08:32:15;1.70;99.90
2300;DHT22;1158;48.750;9.078;2023-11-25T08:34:42;1.90;99.90
2300;DHT22;1158;48.750;9.078;2023-11-25T08:37:09;2.00;99.90
2300;DHT22;1158;48.750;9.078;2023-11-25T08:39:35;2.10;99.90
2300;DHT22;1158;48.750;9.078;2023-11-25T08:42:04;2.00;99.90
2300;DHT22;1158;48.750;9.078;2023-11-25T08:44:33;1.90;99.90
2300;DHT22;1158;48.750;9.078;2023-11-25T08:47:01;1.80;99.90
2300;DHT22;1158;48.750;9.078;2023-11-25T08:49:28;1.70;99.90
2300;DHT22;1158;48.750;9.078;2023-11-25T08:51:55;1.80;99.90
2300;DHT22;1158;48.750;9.078;2023-11-25T08:54:22;1.80;99.90
2300;DHT22;1158;48.750;9.078;2023-11-25T08:56:48;1.90;99.90
2300;DHT22;1158;48.750;9.078;2023-11-25T08:59:18;1.90;99.90
2300;DHT22;1158;48.750;9.078;2023-11-25T09:01:47;2.10;99.90
2300;DHT22;1158;48.750;9.078;2023-11-25T09:04:14;2.40;99.90
2300;DHT22;1158;48.750;9.078;2023-11-25T09:06:45;2.50;99.90
2300;DHT22;1158;48.750;9.078;2023-11-25T09:09:13;2.70;99.90
2300;DHT22;1158;48.750;9.078;2023-11-25T09:11:41;2.90;99.90
2300;DHT22;1158;48.750;9.078;2023-11-25T09:14:08;2.70;99.90
2300;DHT22;1158;48.750;9.078;2023-11-25T09:16:37;2.50;99.90
2300;DHT22;1158;48.750;9.078;2023-11-25T09:19:04;2.60;99.90
2300;DHT22;1158;48.750;9.078;2023-11-25T09:21:30;2.60;99.90
2300;DHT22;1158;48.750;9.078;2023-11-25T09:23:57;2.50;99.90
2300;DHT22;1158;48.750;9.078;2023-11-25T09:26:24;2.40;99.90
2300;DHT22;1158;48.750;9.078;2023-11-25T09:28:51;2.40;99.90
2300;DHT22;1158;48.750;9.078;2023-11-25T09:31:18;2.40;99.90
2300;DHT22;1158;48.750;9.078;2023-11-25T09:33:46;2.50;99.90
2300;DHT22;1158;48.750;9.078;2023-11-25T09:36:13;2.50;99.90
2300;DHT22;1158;48.750;9.078;2023-11-25T09:38:40;2.50;99.90
2300;DHT22;1158;48.750;9.078;2023-11-25T09:41:08;2.60;99.90
2300;DHT22;1158;48.750;9.078;2023-11-25T09:43:35;2.70;99.90
2300;DHT22;1158;48.750;9.078;2023-11-25T09:46:02;2.80;99.90
2300;DHT22;1158;48.750;9.078;2023-11-25T09:48:31;3.30;99.90
2300;DHT22;1158;48.750;9.078;2023-11-25T09:51:00;3.30;99.90
2300;DHT22;1158;48.750;9.078;2023-11-25T09:53:29;3.30;99.90
2300;DHT22;1158;48.750;9.078;2023-11-25T09:56:00;3.90;99.90
2300;DHT22;1158;48.750;9.078;2023-11-25T09:58:39;4.10;99.90
2300;DHT22;1158;48.750;9.078;2023-11-25T10:01:08;4.90;99.90
2300;DHT22;1158;48.750;9.078;2023-11-25T10:03:39;5.30;99.90
2300;DHT22;1158;48.750;9.078;2023-11-25T10:06:09;5.50;99.90
2300;DHT22;1158;48.750;9.078;2023-11-25T10:08:36;5.10;99.90
2300;DHT22;1158;48.750;9.078;2023-11-25T10:11:04;4.90;99.90
2300;DHT22;1158;48.750;9.078;2023-11-25T10:13:33;4.20;99.90
2300;DHT22;1158;48.750;9.078;2023-11-25T10:16:00;3.90;99.90
2300;DHT22;1158;48.750;9.078;2023-11-25T10:18:27;3.70;99.90
2300;DHT22;1158;48.750;9.078;2023-11-25T10:20:55;3.80;99.90
2300;DHT22;1158;48.750;9.078;2023-11-25T10:23:25;3.80;99.90
2300;DHT22;1158;48.750;9.078;2023-11-25T10:25:53;3.70;99.90
2300;DHT22;1158;48.750;9.078;2023-11-25T10:28:20;3.60;99.90
2300;DHT22;1158;48.750;9.078;2023-11-25T10:30:54;3.70;99.90
2300;DHT22;1158;48.750;9.078;2023-11-25T10:33:21;3.90;99.90
2300;DHT22;1158;48.750;9.078;2023-11-25T10:35:49;4.40;99.90
2300;DHT22;1158;48.750;9.078;2023-11-25T10:38:16;4.70;99.90
2300;DHT22;1158;48.750;9.078;2023-11-25T10:40:46;5.30;99.90
2300;DHT22;1158;48.750;9.078;2023-11-25T10:43:14;5.80;99.90
2300;DHT22;1158;48.750;9.078;2023-11-25T10:45:41;5.50;99.90
2300;DHT22;1158;48.750;9.078;2023-11-25T10:48:10;5.30;99.90
2300;DHT22;1158;48.750;9.078;2023-11-25T10:50:40;5.10;99.90
2300;DHT22;1158;48.750;9.078;2023-11-25T10:53:10;5.60;99.90
2300;DHT22;1158;48.750;9.078;2023-11-25T10:55:38;5.90;99.90
2300;DHT22;1158;48.750;9.078;2023-11-25T10:58:09;5.80;99.90
2300;DHT22;1158;48.750;9.078;2023-11-25T11:00:37;6.10;99.90
2300;DHT22;1158;48.750;9.078;2023-11-25T11:03:08;5.90;99.90
2300;DHT22;1158;48.750;9.078;2023-11-25T11:05:41;5.60;99.90
2300;DHT22;1158;48.750;9.078;2023-11-25T11:08:15;5.10;99.90
2300;DHT22;1158;48.750;9.078;2023-11-25T11:10:49;4.90;99.90
2300;DHT22;1158;48.750;9.078;2023-11-25T11:13:24;5.00;99.90
2300;DHT22;1158;48.750;9.078;2023-11-25T11:15:54;4.70;99.90
2300;DHT22;1158;48.750;9.078;2023-11-25T11:18:25;4.50;99.90
2300;DHT22;1158;48.750;9.078;2023-11-25T11:20:55;4.30;99.90
2300;DHT22;1158;48.750;9.078;2023-11-25T11:23:25;4.40;99.90
2300;DHT22;1158;48.750;9.078;2023-11-25T11:25:59;4.30;99.90
2300;DHT22;1158;48.750;9.078;2023-11-25T11:28:38;4.40;99.90
2300;DHT22;1158;48.750;9.078;2023-11-25T11:31:55;4.30;99.90
2300;DHT22;1158;48.750;9.078;2023-11-25T11:34:24;4.40;99.90
2300;DHT22;1158;48.750;9.078;2023-11-25T11:36:51;4.00;99.90
2300;DHT22;1158;48.750;9.078;2023-11-25T11:39:31;3.80;99.90
2300;DHT22;1158;48.750;9.078;2023-11-25T11:42:23;3.80;99.90
2300;DHT22;1158;48.750;9.078;2023-11-25T11:44:59;3.60;99.90
2300;DHT22;1158;48.750;9.078;2023-11-25T11:47:42;3.40;99.90
2300;DHT22;1158;48.750;9.078;2023-11-25T11:50:14;3.10;99.90
2300;DHT22;1158;48.750;9.078;2023-11-25T11:52:44;3.00;99.90
2300;DHT22;1158;48.750;9.078;2023-11-25T11:55:33;2.90;99.90
2300;DHT22;1158;48.750;9.078;2023-11-25T11:58:05;2.60;99.90
2300;DHT22;1158;48.750;9.078;2023-11-25T12:00:39;2.50;99.90
2300;DHT22;1158;48.750;9.078;2023-11-25T12:03:06;2.30;99.90
2300;DHT22;1158;48.750;9.078;2023-11-25T12:05:33;2.20;99.90
2300;DHT22;1158;48.750;9.078;2023-11-25T12:08:00;2.20;99.90
2300;DHT22;1158;48.750;9.078;2023-11-25T12:10:27;2.20;99.90
2300;DHT22;1158;48.750;9.078;2023-11-25T12:12:53;2.20;99.90
2300;DHT22;1158;48.750;9.078;2023-11-25T12:15:20;2.20;99.90
2300;DHT22;1158;48.750;9.078;2023-11-25T12:17:50;2.30;99.90
2300;DHT22;1158;48.750;9.078;2023-11-25T12:20:18;2.20;99.90
2300;DHT22;1158;48.750;9.078;2023-11-25T12:22:45;2.30;99.90
2300;DHT22;1158;48.750;9.078;2023-11-25T12:25:12;2.40;99.90
2300;DHT22;1158;48.750;9.078;2023-11-25T12:27:46;2.50;99.90
2300;DHT22;1158;48.750;9.078;2023-11-25T12:30:15;2.40;99.90
2300;DHT22;1158;48.750;9.078;2023-11-25T12:32:42;2.50;99.90
2300;DHT22;1158;48.750;9.078;2023-11-25T12:35:10;2.30;99.90
2300;DHT22;1158;48.750;9.078;2023-11-25T12:37:40;2.30;99.90
2300;DHT22;1158;48.750;9.078;2023-11-25T12:40:15;2.10;99.90
2300;DHT22;1158;48.750;9.078;2023-11-25T12:42:44;2.20;99.90
2300;DHT22;1158;48.750;9.078;2023-11-25T12:45:26;2.10;99.90
2300;DHT22;1158;48.750;9.078;2023-11-25T12:47:53;2.20;99.90
2300;DHT22;1158;48.750;9.078;2023-11-25T12:50:22;2.30;99.90
2300;DHT22;1158;48.750;9.078;2023-11-25T12:53:02;2.60;99.90
2300;DHT22;1158;48.750;9.078;2023-11-25T12:55:36;4.00;99.90
2300;DHT22;1158;48.750;9.078;2023-11-25T12:58:05;4.00;99.90
2300;DHT22;1158;48.750;9.078;2023-11-25T13:00:33;3.80;99.90
2300;DHT22;1158;48.750;9.078;2023-11-25T13:03:00;3.40;99.90
2300;DHT22;1158;48.750;9.078;2023-11-25T13:05:31;3.20;99.90
2300;DHT22;1158;48.750;9.078;2023-11-25T13:07:58;3.00;99.90
2300;DHT22;1158;48.750;9.078;2023-11-25T13:10:25;2.80;99.90
2300;DHT22;1158;48.750;9.078;2023-11-25T13:12:51;2.60;99.90
2300;DHT22;1158;48.750;9.078;2023-11-25T13:15:18;2.60;99.90
2300;DHT22;1158;48.750;9.078;2023-11-25T13:17:45;2.60;99.90
2300;DHT22;1158;48.750;9.078;2023-11-25T13:20:13;2.70;99.90
2300;DHT22;1158;48.750;9.078;2023-11-25T13:22:43;2.50;99.90
2300;DHT22;1158;48.750;9.078;2023-11-25T13:25:10;2.50;99.90
2300;DHT22;1158;48.750;9.078;2023-11-25T13:27:38;2.40;99.90
2300;DHT22;1158;48.750;9.078;2023-11-25T13:30:06;2.40;99.90
2300;DHT22;1158;48.750;9.078;2023-11-25T13:32:33;2.30;99.90
2300;DHT22;1158;48.750;9.078;2023-11-25T13:35:00;2.30;99.90
2300;DHT22;1158;48.750;9.078;2023-11-25T13:37:27;2.30;99.90
2300;DHT22;1158;48.750;9.078;2023-11-25T13:39:55;2.40;99.90
2300;DHT22;1158;48.750;9.078;2023-11-25T13:42:22;2.30;99.90
2300;DHT22;1158;48.750;9.078;2023-11-25T13:44:50;2.30;99.90
2300;DHT22;1158;48.750;9.078;2023-11-25T13:47:16;2.30;99.90
2300;DHT22;1158;48.750;9.078;2023-11-25T13:49:44;2.30;99.90
2300;DHT22;1158;48.750;9.078;2023-11-25T13:52:10;2.30;99.90
2300;DHT22;1158;48.750;9.078;2023-11-25T13:54:37;2.30;99.90
2300;DHT22;1158;48.750;9.078;2023-11-25T13:57:06;2.20;99.90
2300;DHT22;1158;48.750;9.078;2023-11-25T13:59:33;2.20;99.90
2300;DHT22;1158;48.750;9.078;2023-11-25T14:01:59;2.10;99.90
2300;DHT22;1158;48.750;9.078;2023-11-25T14:04:28;2.10;99.90
2300;DHT22;1158;48.750;9.078;2023-11-25T14:06:57;2.10;99.90
2300;DHT22;1158;48.750;9.078;2023-11-25T14:09:25;2.10;99.90
2300;DHT22;1158;48.750;9.078;2023-11-25T14:11:52;2.10;99.90
2300;DHT22;1158;48.750;9.078;2023-11-25T14:14:20;2.10;99.90
2300;DHT22;1158;48.750;9.078;2023-11-25T14:16:47;2.10;99.90
2300;DHT22;1158;48.750;9.078;2023-11-25T14:19:14;2.00;99.90
2300;DHT22;1158;48.750;9.078;2023-11-25T14:21:42;2.10;99.90
2300;DHT22;1158;48.750;9.078;2023-11-25T14:24:09;2.00;99.90
2300;DHT22;1158;48.750;9.078;2023-11-25T14:26:36;2.10;99.90
2300;DHT22;1158;48.750;9.078;2023-11-25T14:29:03;2.10;99.90
2300;DHT22;1158;48.750;9.078;2023-11-25T14:31:31;2.10;99.90
2300;DHT22;1158;48.750;9.078;2023-11-25T14:33:58;2.20;99.90
2300;DHT22;1158;48.750;9.078;2023-11-25T14:36:24;2.10;99.90
2300;DHT22;1158;48.750;9.078;2023-11-25T14:38:51;2.20;99.90
2300;DHT22;1158;48.750;9.078;2023-11-25T14:41:20;2.20;99.90
2300;DHT22;1158;48.750;9.078;2023-11-25T14:43:47;2.30;99.90
2300;DHT22;1158;48.750;9.078;2023-11-25T14:46:14;2.30;99.90
2300;DHT22;1158;48.750;9.078;2023-11-25T14:48:43;2.30;99.90
2300;DHT22;1158;48.750;9.078;2023-11-25T14:51:10;2.30;99.90
2300;DHT22;1158;48.750;9.078;2023-11-25T14:53:37;2.30;99.90
2300;DHT22;1158;48.750;9.078;2023-11-25T14:56:05;2.30;99.90
2300;DHT22;1158;48.750;9.078;2023-11-25T14:58:32;2.30;99.90
2300;DHT22;1158;48.750;9.078;2023-11-25T15:01:00;2.30;99.90
2300;DHT22;1158;48.750;9.078;2023-11-25T15:03:26;2.30;99.90
2300;DHT22;1158;48.750;9.078;2023-11-25T15:05:55;2.30;99.90
2300;DHT22;1158;48.750;9.078;2023-11-25T15:08:21;2.40;99.90
2300;DHT22;1158;48.750;9.078;2023-11-25T15:10:48;2.40;99.90
2300;DHT22;1158;48.750;9.078;2023-11-25T15:13:16;2.40;99.90
2300;DHT22;1158;48.750;9.078;2023-11-25T15:15:42;2.40;99.90
2300;DHT22;1158;48.750;9.078;2023-11-25T15:18:09;2.40;99.90
2300;DHT22;1158;48.750;9.078;2023-11-25T15:20:37;2.40;99.90
2300;DHT22;1158;48.750;9.078;2023-11-25T15:23:05;2.40;99.90
2300;DHT22;1158;48.750;9.078;2023-11-25T15:25:31;2.40;99.90
2300;DHT22;1158;48.750;9.078;2023-11-25T15:27:58;2.40;99.90
2300;DHT22;1158;48.750;9.078;2023-11-25T15:30:26;2.40;99.90
2300;DHT22;1158;48.750;9.078;2023-11-25T15:32:54;2.40;99.90
2300;DHT22;1158;48.750;9.078;2023-11-25T15:35:21;2.40;99.90
2300;DHT22;1158;48.750;9.078;2023-11-25T15:37:48;2.40;99.90
2300;DHT22;1158;48.750;9.078;2023-11-25T15:40:17;2.40;99.90
2300;DHT22;1158;48.750;9.078;2023-11-25T15:42:44;2.30;99.90
2300;DHT22;1158;48.750;9.078;2023-11-25T15:45:10;2.40;99.90
2300;DHT22;1158;48.750;9.078;2023-11-25T15:47:37;2.40;99.90
2300;DHT22;1158;48.750;9.078;2023-11-25T15:50:06;2.30;99.90
2300;DHT22;1158;48.750;9.078;2023-11-25T15:52:34;2.30;99.90
2300;DHT22;1158;48.750;9.078;2023-11-25T15:55:01;2.40;99.90
2300;DHT22;1158;48.750;9.078;2023-11-25T15:57:29;2.40;99.90
2300;DHT22;1158;48.750;9.078;2023-11-25T15:59:56;2.40;99.90
2300;DHT22;1158;48.750;9.078;2023-11-25T16:02:23;2.40;99.90
2300;DHT22;1158;48.750;9.078;2023-11-25T16:04:51;2.40;99.90
2300;DHT22;1158;48.750;9.078;2023-11-25T16:07:18;2.40;99.90
2300;DHT22;1158;48.750;9.078;2023-11-25T16:09:46;2.30;99.90
2300;DHT22;1158;48.750;9.078;2023-11-25T16:12:13;2.30;99.90
2300;DHT22;1158;48.750;9.078;2023-11-25T16:14:41;2.40;99.90
2300;DHT22;1158;48.750;9.078;2023-11-25T16:17:09;2.40;99.90
2300;DHT22;1158;48.750;9.078;2023-11-25T16:19:41;2.30;99.90
2300;DHT22;1158;48.750;9.078;2023-11-25T16:22:07;2.30;99.90